sensor_id;sensor_type;location;lat;lon;timestamp;pressure;altitude;pressure_sealevel;temperature
19948;BMP180;10135;50.702;7.276;2022-08-27T00:01:13;99465.00;;;24.40
19948;BMP180;10135;50.702;7.276;2022-08-27T00:03:16;99455.00;;;24.40
19948;BMP180;10135;50.702;7.276;2022-08-27T00:05:18;99461.00;;;24.40
19948;BMP180;10135;50.702;7.276;2022-08-27T00:07:19;99464.00;;;24.40
19948;BMP180;10135;50.702;7.276;2022-08-27T00:09:20;99463.00;;;24.40
19948;BMP180;10135;50.702;7.276;2022-08-27T00:11:22;99457.00;;;24.40
19948;BMP180;10135;50.702;7.276;2022-08-27T00:13:24;99458.00;;;24.40
19948;BMP180;10135;50.702;7.276;2022-08-27T00:15:27;99458.00;;;24.40
19948;BMP180;10135;50.702;7.276;2022-08-27T00:17:28;99452.00;;;24.30
19948;BMP180;10135;50.702;7.276;2022-08-27T00:19:28;99454.00;;;24.40
19948;BMP180;10135;50.702;7.276;2022-08-27T00:21:29;99451.00;;;24.40
19948;BMP180;10135;50.702;7.276;2022-08-27T00:23:33;99447.00;;;24.40
19948;BMP180;10135;50.702;7.276;2022-08-27T00:25:34;99453.00;;;24.30
19948;BMP180;10135;50.702;7.276;2022-08-27T00:27:36;99446.00;;;24.30
19948;BMP180;10135;50.702;7.276;2022-08-27T00:29:36;99451.00;;;24.30
19948;BMP180;10135;50.702;7.276;2022-08-27T00:31:37;99448.00;;;24.30
19948;BMP180;10135;50.702;7.276;2022-08-27T00:33:39;99454.00;;;24.30
19948;BMP180;10135;50.702;7.276;2022-08-27T00:35:40;99451.00;;;24.30
19948;BMP180;10135;50.702;7.276;2022-08-27T00:37:42;99451.00;;;24.30
19948;BMP180;10135;50.702;7.276;2022-08-27T00:39:43;99449.00;;;24.30
19948;BMP180;10135;50.702;7.276;2022-08-27T00:41:44;99454.00;;;24.20
19948;BMP180;10135;50.702;7.276;2022-08-27T00:43:56;99450.00;;;24.20
19948;BMP180;10135;50.702;7.276;2022-08-27T00:46:36;99445.00;;;24.20
19948;BMP180;10135;50.702;7.276;2022-08-27T00:48:35;99446.00;;;24.20
19948;BMP180;10135;50.702;7.276;2022-08-27T00:50:42;99446.00;;;24.10
19948;BMP180;10135;50.702;7.276;2022-08-27T00:52:52;99441.00;;;24.10
19948;BMP180;10135;50.702;7.276;2022-08-27T00:55:04;99444.00;;;24.10
19948;BMP180;10135;50.702;7.276;2022-08-27T00:57:06;99439.00;;;24.10
19948;BMP180;10135;50.702;7.276;2022-08-27T00:59:06;99445.00;;;24.10
19948;BMP180;10135;50.702;7.276;2022-08-27T01:01:13;99441.00;;;24.10
19948;BMP180;10135;50.702;7.276;2022-08-27T01:03:15;99447.00;;;24.10
19948;BMP180;10135;50.702;7.276;2022-08-27T01:05:20;99452.00;;;24.10
19948;BMP180;10135;50.702;7.276;2022-08-27T01:07:22;99447.00;;;24.10
19948;BMP180;10135;50.702;7.276;2022-08-27T01:09:25;99446.00;;;24.10
19948;BMP180;10135;50.702;7.276;2022-08-27T01:11:26;99446.00;;;24.10
19948;BMP180;10135;50.702;7.276;2022-08-27T01:13:31;99439.00;;;24.10
19948;BMP180;10135;50.702;7.276;2022-08-27T01:15:32;99439.00;;;24.10
19948;BMP180;10135;50.702;7.276;2022-08-27T01:17:33;99435.00;;;24.10
19948;BMP180;10135;50.702;7.276;2022-08-27T01:19:50;99436.00;;;24.00
19948;BMP180;10135;50.702;7.276;2022-08-27T01:22:14;99435.00;;;24.00
19948;BMP180;10135;50.702;7.276;2022-08-27T01:26:30;99437.00;;;24.00
19948;BMP180;10135;50.702;7.276;2022-08-27T01:28:33;99432.00;;;23.90
19948;BMP180;10135;50.702;7.276;2022-08-27T01:30:35;99429.00;;;23.90
19948;BMP180;10135;50.702;7.276;2022-08-27T01:32:38;99424.00;;;23.90
19948;BMP180;10135;50.702;7.276;2022-08-27T01:34:39;99426.00;;;23.90
19948;BMP180;10135;50.702;7.276;2022-08-27T01:36:40;99423.00;;;23.90
19948;BMP180;10135;50.702;7.276;2022-08-27T01:38:41;99424.00;;;23.90
19948;BMP180;10135;50.702;7.276;2022-08-27T01:40:42;99428.00;;;23.90
19948;BMP180;10135;50.702;7.276;2022-08-27T01:42:48;99429.00;;;23.80
19948;BMP180;10135;50.702;7.276;2022-08-27T01:44:58;99422.00;;;23.80
19948;BMP180;10135;50.702;7.276;2022-08-27T01:46:59;99421.00;;;23.80
19948;BMP180;10135;50.702;7.276;2022-08-27T01:49:00;99421.00;;;23.80
19948;BMP180;10135;50.702;7.276;2022-08-27T01:51:00;99422.00;;;23.80
19948;BMP180;10135;50.702;7.276;2022-08-27T01:53:11;99422.00;;;23.70
19948;BMP180;10135;50.702;7.276;2022-08-27T01:55:17;99418.00;;;23.70
19948;BMP180;10135;50.702;7.276;2022-08-27T01:57:19;99417.00;;;23.70
19948;BMP180;10135;50.702;7.276;2022-08-27T01:59:20;99416.00;;;23.70
19948;BMP180;10135;50.702;7.276;2022-08-27T02:01:20;99416.00;;;23.60
19948;BMP180;10135;50.702;7.276;2022-08-27T02:03:21;99418.00;;;23.60
19948;BMP180;10135;50.702;7.276;2022-08-27T02:05:23;99431.00;;;23.60
19948;BMP180;10135;50.702;7.276;2022-08-27T02:07:24;99421.00;;;23.60
19948;BMP180;10135;50.702;7.276;2022-08-27T02:09:25;99419.00;;;23.60
19948;BMP180;10135;50.702;7.276;2022-08-27T02:11:26;99417.00;;;23.60
19948;BMP180;10135;50.702;7.276;2022-08-27T02:13:27;99422.00;;;23.60
19948;BMP180;10135;50.702;7.276;2022-08-27T02:15:28;99415.00;;;23.50
19948;BMP180;10135;50.702;7.276;2022-08-27T02:17:29;99419.00;;;23.50
19948;BMP180;10135;50.702;7.276;2022-08-27T02:19:30;99407.00;;;23.50
19948;BMP180;10135;50.702;7.276;2022-08-27T02:21:30;99414.00;;;23.50
19948;BMP180;10135;50.702;7.276;2022-08-27T02:23:31;99416.00;;;23.50
19948;BMP180;10135;50.702;7.276;2022-08-27T02:25:32;99408.00;;;23.40
19948;BMP180;10135;50.702;7.276;2022-08-27T02:27:34;99405.00;;;23.40
19948;BMP180;10135;50.702;7.276;2022-08-27T02:29:35;99407.00;;;23.40
19948;BMP180;10135;50.702;7.276;2022-08-27T02:31:36;99406.00;;;23.40
19948;BMP180;10135;50.702;7.276;2022-08-27T02:33:37;99407.00;;;23.30
19948;BMP180;10135;50.702;7.276;2022-08-27T02:35:38;99408.00;;;23.30
19948;BMP180;10135;50.702;7.276;2022-08-27T02:37:40;99414.00;;;23.30
19948;BMP180;10135;50.702;7.276;2022-08-27T02:39:41;99417.00;;;23.30
19948;BMP180;10135;50.702;7.276;2022-08-27T02:41:41;99408.00;;;23.20
19948;BMP180;10135;50.702;7.276;2022-08-27T02:43:43;99419.00;;;23.30
19948;BMP180;10135;50.702;7.276;2022-08-27T02:45:45;99414.00;;;23.20
19948;BMP180;10135;50.702;7.276;2022-08-27T02:47:46;99408.00;;;23.20
19948;BMP180;10135;50.702;7.276;2022-08-27T02:49:47;99406.00;;;23.20
19948;BMP180;10135;50.702;7.276;2022-08-27T02:51:53;99412.00;;;23.20
19948;BMP180;10135;50.702;7.276;2022-08-27T02:53:54;99409.00;;;23.20
19948;BMP180;10135;50.702;7.276;2022-08-27T02:55:54;99407.00;;;23.10
19948;BMP180;10135;50.702;7.276;2022-08-27T02:57:55;99402.00;;;23.10
19948;BMP180;10135;50.702;7.276;2022-08-27T02:59:56;99411.00;;;23.10
19948;BMP180;10135;50.702;7.276;2022-08-27T03:01:57;99409.00;;;23.10
19948;BMP180;10135;50.702;7.276;2022-08-27T03:03:57;99407.00;;;23.10
19948;BMP180;10135;50.702;7.276;2022-08-27T03:05:58;99411.00;;;23.10
19948;BMP180;10135;50.702;7.276;2022-08-27T03:07:59;99404.00;;;23.00
19948;BMP180;10135;50.702;7.276;2022-08-27T03:09:59;99407.00;;;23.00
19948;BMP180;10135;50.702;7.276;2022-08-27T03:12:00;99412.00;;;23.00
19948;BMP180;10135;50.702;7.276;2022-08-27T03:14:02;99411.00;;;23.00
19948;BMP180;10135;50.702;7.276;2022-08-27T03:16:03;99417.00;;;23.00
19948;BMP180;10135;50.702;7.276;2022-08-27T03:18:04;99412.00;;;23.00
19948;BMP180;10135;50.702;7.276;2022-08-27T03:20:22;99410.00;;;23.00
19948;BMP180;10135;50.702;7.276;2022-08-27T03:22:22;99412.00;;;23.00
19948;BMP180;10135;50.702;7.276;2022-08-27T03:24:24;99407.00;;;23.00
19948;BMP180;10135;50.702;7.276;2022-08-27T03:26:25;99407.00;;;23.00
19948;BMP180;10135;50.702;7.276;2022-08-27T03:28:31;99406.00;;;23.00
19948;BMP180;10135;50.702;7.276;2022-08-27T03:30:32;99408.00;;;23.00
19948;BMP180;10135;50.702;7.276;2022-08-27T03:32:34;99406.00;;;23.00
19948;BMP180;10135;50.702;7.276;2022-08-27T03:34:35;99409.00;;;23.00
19948;BMP180;10135;50.702;7.276;2022-08-27T03:36:36;99414.00;;;23.00
19948;BMP180;10135;50.702;7.276;2022-08-27T03:38:37;99404.00;;;23.00
19948;BMP180;10135;50.702;7.276;2022-08-27T03:40:38;99416.00;;;23.00
19948;BMP180;10135;50.702;7.276;2022-08-27T03:42:39;99412.00;;;23.00
19948;BMP180;10135;50.702;7.276;2022-08-27T03:44:40;99412.00;;;23.00
19948;BMP180;10135;50.702;7.276;2022-08-27T03:46:40;99413.00;;;23.00
19948;BMP180;10135;50.702;7.276;2022-08-27T03:48:41;99417.00;;;23.00
19948;BMP180;10135;50.702;7.276;2022-08-27T03:50:45;99419.00;;;23.00
19948;BMP180;10135;50.702;7.276;2022-08-27T03:52:46;99419.00;;;23.00
19948;BMP180;10135;50.702;7.276;2022-08-27T03:54:47;99417.00;;;23.00
19948;BMP180;10135;50.702;7.276;2022-08-27T03:56:48;99423.00;;;23.00
19948;BMP180;10135;50.702;7.276;2022-08-27T03:58:49;99421.00;;;23.00
19948;BMP180;10135;50.702;7.276;2022-08-27T04:00:49;99422.00;;;23.00
19948;BMP180;10135;50.702;7.276;2022-08-27T04:02:50;99421.00;;;22.90
19948;BMP180;10135;50.702;7.276;2022-08-27T04:04:51;99420.00;;;22.90
19948;BMP180;10135;50.702;7.276;2022-08-27T04:06:52;99417.00;;;22.90
19948;BMP180;10135;50.702;7.276;2022-08-27T04:08:52;99423.00;;;22.90
19948;BMP180;10135;50.702;7.276;2022-08-27T04:10:54;99425.00;;;22.90
19948;BMP180;10135;50.702;7.276;2022-08-27T04:12:54;99422.00;;;22.80
19948;BMP180;10135;50.702;7.276;2022-08-27T04:14:55;99421.00;;;22.80
19948;BMP180;10135;50.702;7.276;2022-08-27T04:16:56;99419.00;;;22.80
19948;BMP180;10135;50.702;7.276;2022-08-27T04:18:57;99425.00;;;22.80
19948;BMP180;10135;50.702;7.276;2022-08-27T04:21:08;99423.00;;;22.70
19948;BMP180;10135;50.702;7.276;2022-08-27T04:23:09;99422.00;;;22.70
19948;BMP180;10135;50.702;7.276;2022-08-27T04:25:09;99425.00;;;22.70
19948;BMP180;10135;50.702;7.276;2022-08-27T04:27:10;99427.00;;;22.70
19948;BMP180;10135;50.702;7.276;2022-08-27T04:29:11;99430.00;;;22.70
19948;BMP180;10135;50.702;7.276;2022-08-27T04:31:11;99429.00;;;22.60
19948;BMP180;10135;50.702;7.276;2022-08-27T04:33:13;99430.00;;;22.60
19948;BMP180;10135;50.702;7.276;2022-08-27T04:35:14;99430.00;;;22.60
19948;BMP180;10135;50.702;7.276;2022-08-27T04:37:14;99436.00;;;22.60
19948;BMP180;10135;50.702;7.276;2022-08-27T04:39:15;99435.00;;;22.60
19948;BMP180;10135;50.702;7.276;2022-08-27T04:41:16;99434.00;;;22.60
19948;BMP180;10135;50.702;7.276;2022-08-27T04:43:20;99440.00;;;22.60
19948;BMP180;10135;50.702;7.276;2022-08-27T04:45:21;99443.00;;;22.60
19948;BMP180;10135;50.702;7.276;2022-08-27T04:47:22;99444.00;;;22.60
19948;BMP180;10135;50.702;7.276;2022-08-27T04:49:23;99441.00;;;22.50
19948;BMP180;10135;50.702;7.276;2022-08-27T04:51:26;99446.00;;;22.50
19948;BMP180;10135;50.702;7.276;2022-08-27T04:53:28;99449.00;;;22.50
19948;BMP180;10135;50.702;7.276;2022-08-27T04:55:28;99447.00;;;22.50
19948;BMP180;10135;50.702;7.276;2022-08-27T04:57:29;99456.00;;;22.50
19948;BMP180;10135;50.702;7.276;2022-08-27T04:59:31;99450.00;;;22.50
19948;BMP180;10135;50.702;7.276;2022-08-27T05:01:32;99447.00;;;22.50
19948;BMP180;10135;50.702;7.276;2022-08-27T05:03:33;99446.00;;;22.50
19948;BMP180;10135;50.702;7.276;2022-08-27T05:05:34;99448.00;;;22.50
19948;BMP180;10135;50.702;7.276;2022-08-27T05:07:35;99447.00;;;22.50
19948;BMP180;10135;50.702;7.276;2022-08-27T05:09:35;99449.00;;;22.40
19948;BMP180;10135;50.702;7.276;2022-08-27T05:11:36;99445.00;;;22.40
19948;BMP180;10135;50.702;7.276;2022-08-27T05:13:38;99446.00;;;22.40
19948;BMP180;10135;50.702;7.276;2022-08-27T05:15:39;99451.00;;;22.40
19948;BMP180;10135;50.702;7.276;2022-08-27T05:17:40;99450.00;;;22.40
19948;BMP180;10135;50.702;7.276;2022-08-27T05:19:41;99452.00;;;22.40
19948;BMP180;10135;50.702;7.276;2022-08-27T05:21:46;99455.00;;;22.40
19948;BMP180;10135;50.702;7.276;2022-08-27T05:23:48;99452.00;;;22.40
19948;BMP180;10135;50.702;7.276;2022-08-27T05:25:50;99456.00;;;22.40
19948;BMP180;10135;50.702;7.276;2022-08-27T05:27:52;99448.00;;;22.40
19948;BMP180;10135;50.702;7.276;2022-08-27T05:29:52;99452.00;;;22.40
19948;BMP180;10135;50.702;7.276;2022-08-27T05:31:54;99452.00;;;22.40
19948;BMP180;10135;50.702;7.276;2022-08-27T05:33:56;99456.00;;;22.30
19948;BMP180;10135;50.702;7.276;2022-08-27T05:35:58;99446.00;;;22.30
19948;BMP180;10135;50.702;7.276;2022-08-27T05:38:00;99445.00;;;22.30
19948;BMP180;10135;50.702;7.276;2022-08-27T05:40:04;99450.00;;;22.30
19948;BMP180;10135;50.702;7.276;2022-08-27T05:42:05;99450.00;;;22.30
19948;BMP180;10135;50.702;7.276;2022-08-27T05:44:08;99440.00;;;22.30
19948;BMP180;10135;50.702;7.276;2022-08-27T05:46:13;99437.00;;;22.30
19948;BMP180;10135;50.702;7.276;2022-08-27T05:48:15;99436.00;;;22.30
19948;BMP180;10135;50.702;7.276;2022-08-27T05:50:16;99441.00;;;22.30
19948;BMP180;10135;50.702;7.276;2022-08-27T05:52:18;99442.00;;;22.30
19948;BMP180;10135;50.702;7.276;2022-08-27T05:54:19;99444.00;;;22.30
19948;BMP180;10135;50.702;7.276;2022-08-27T05:56:24;99453.00;;;22.30
19948;BMP180;10135;50.702;7.276;2022-08-27T05:58:24;99450.00;;;22.30
19948;BMP180;10135;50.702;7.276;2022-08-27T06:00:44;99453.00;;;22.30
19948;BMP180;10135;50.702;7.276;2022-08-27T06:03:03;99455.00;;;22.30
19948;BMP180;10135;50.702;7.276;2022-08-27T06:05:04;99459.00;;;22.30
19948;BMP180;10135;50.702;7.276;2022-08-27T06:07:07;99456.00;;;22.30
19948;BMP180;10135;50.702;7.276;2022-08-27T06:09:14;99448.00;;;22.30
19948;BMP180;10135;50.702;7.276;2022-08-27T06:11:16;99449.00;;;22.30
19948;BMP180;10135;50.702;7.276;2022-08-27T06:13:18;99447.00;;;22.30
19948;BMP180;10135;50.702;7.276;2022-08-27T06:15:20;99456.00;;;22.30
19948;BMP180;10135;50.702;7.276;2022-08-27T06:17:21;99449.00;;;22.30
19948;BMP180;10135;50.702;7.276;2022-08-27T06:19:22;99452.00;;;22.30
19948;BMP180;10135;50.702;7.276;2022-08-27T06:21:23;99455.00;;;22.30
19948;BMP180;10135;50.702;7.276;2022-08-27T06:23:24;99461.00;;;22.30
19948;BMP180;10135;50.702;7.276;2022-08-27T06:25:25;99461.00;;;22.30
19948;BMP180;10135;50.702;7.276;2022-08-27T06:27:26;99467.00;;;22.30
19948;BMP180;10135;50.702;7.276;2022-08-27T06:29:26;99463.00;;;22.30
19948;BMP180;10135;50.702;7.276;2022-08-27T06:31:27;99463.00;;;22.30
19948;BMP180;10135;50.702;7.276;2022-08-27T06:33:28;99461.00;;;22.30
19948;BMP180;10135;50.702;7.276;2022-08-27T06:35:33;99463.00;;;22.20
19948;BMP180;10135;50.702;7.276;2022-08-27T06:37:34;99461.00;;;22.20
19948;BMP180;10135;50.702;7.276;2022-08-27T06:39:37;99462.00;;;22.20
19948;BMP180;10135;50.702;7.276;2022-08-27T06:41:40;99462.00;;;22.20
19948;BMP180;10135;50.702;7.276;2022-08-27T06:43:42;99454.00;;;22.20
19948;BMP180;10135;50.702;7.276;2022-08-27T06:45:42;99458.00;;;22.20
19948;BMP180;10135;50.702;7.276;2022-08-27T06:47:43;99461.00;;;22.20
19948;BMP180;10135;50.702;7.276;2022-08-27T06:49:44;99459.00;;;22.20
19948;BMP180;10135;50.702;7.276;2022-08-27T06:51:46;99464.00;;;22.20
19948;BMP180;10135;50.702;7.276;2022-08-27T06:53:47;99464.00;;;22.20
19948;BMP180;10135;50.702;7.276;2022-08-27T06:55:48;99456.00;;;22.20
19948;BMP180;10135;50.702;7.276;2022-08-27T06:57:49;99459.00;;;22.20
19948;BMP180;10135;50.702;7.276;2022-08-27T06:59:50;99461.00;;;22.20
19948;BMP180;10135;50.702;7.276;2022-08-27T07:01:51;99455.00;;;22.20
19948;BMP180;10135;50.702;7.276;2022-08-27T07:03:54;99459.00;;;22.20
19948;BMP180;10135;50.702;7.276;2022-08-27T07:06:04;99460.00;;;22.10
19948;BMP180;10135;50.702;7.276;2022-08-27T07:08:07;99454.00;;;22.10
19948;BMP180;10135;50.702;7.276;2022-08-27T07:10:09;99455.00;;;22.10
19948;BMP180;10135;50.702;7.276;2022-08-27T07:12:10;99453.00;;;22.10
19948;BMP180;10135;50.702;7.276;2022-08-27T07:14:11;99451.00;;;22.10
19948;BMP180;10135;50.702;7.276;2022-08-27T07:16:16;99453.00;;;22.10
19948;BMP180;10135;50.702;7.276;2022-08-27T07:18:17;99458.00;;;22.10
19948;BMP180;10135;50.702;7.276;2022-08-27T07:20:19;99450.00;;;22.10
19948;BMP180;10135;50.702;7.276;2022-08-27T07:22:20;99451.00;;;22.10
19948;BMP180;10135;50.702;7.276;2022-08-27T07:24:20;99447.00;;;22.10
19948;BMP180;10135;50.702;7.276;2022-08-27T07:26:22;99457.00;;;22.10
19948;BMP180;10135;50.702;7.276;2022-08-27T07:28:23;99460.00;;;22.10
19948;BMP180;10135;50.702;7.276;2022-08-27T07:30:25;99452.00;;;22.10
19948;BMP180;10135;50.702;7.276;2022-08-27T07:32:27;99456.00;;;22.10
19948;BMP180;10135;50.702;7.276;2022-08-27T07:34:27;99452.00;;;22.10
19948;BMP180;10135;50.702;7.276;2022-08-27T07:36:28;99459.00;;;22.10
19948;BMP180;10135;50.702;7.276;2022-08-27T07:38:29;99453.00;;;22.10
19948;BMP180;10135;50.702;7.276;2022-08-27T07:40:30;99467.00;;;22.10
19948;BMP180;10135;50.702;7.276;2022-08-27T07:42:31;99464.00;;;22.10
19948;BMP180;10135;50.702;7.276;2022-08-27T07:44:50;99465.00;;;22.10
19948;BMP180;10135;50.702;7.276;2022-08-27T07:46:50;99466.00;;;22.10
19948;BMP180;10135;50.702;7.276;2022-08-27T07:48:52;99473.00;;;22.10
19948;BMP180;10135;50.702;7.276;2022-08-27T07:50:54;99471.00;;;22.10
19948;BMP180;10135;50.702;7.276;2022-08-27T07:52:55;99466.00;;;22.10
19948;BMP180;10135;50.702;7.276;2022-08-27T07:54:56;99470.00;;;22.10
19948;BMP180;10135;50.702;7.276;2022-08-27T07:56:56;99468.00;;;22.10
19948;BMP180;10135;50.702;7.276;2022-08-27T07:58:58;99475.00;;;22.10
19948;BMP180;10135;50.702;7.276;2022-08-27T08:00:59;99477.00;;;22.10
19948;BMP180;10135;50.702;7.276;2022-08-27T08:03:00;99474.00;;;22.10
19948;BMP180;10135;50.702;7.276;2022-08-27T08:05:01;99478.00;;;22.10
19948;BMP180;10135;50.702;7.276;2022-08-27T08:07:02;99473.00;;;22.20
19948;BMP180;10135;50.702;7.276;2022-08-27T08:09:04;99470.00;;;22.20
19948;BMP180;10135;50.702;7.276;2022-08-27T08:11:06;99471.00;;;22.20
19948;BMP180;10135;50.702;7.276;2022-08-27T08:13:07;99472.00;;;22.20
19948;BMP180;10135;50.702;7.276;2022-08-27T08:15:09;99477.00;;;22.20
19948;BMP180;10135;50.702;7.276;2022-08-27T08:17:10;99476.00;;;22.20
19948;BMP180;10135;50.702;7.276;2022-08-27T08:19:11;99485.00;;;22.20
19948;BMP180;10135;50.702;7.276;2022-08-27T08:21:13;99491.00;;;22.20
19948;BMP180;10135;50.702;7.276;2022-08-27T08:23:14;99491.00;;;22.20
19948;BMP180;10135;50.702;7.276;2022-08-27T08:25:16;99489.00;;;22.20
19948;BMP180;10135;50.702;7.276;2022-08-27T08:27:17;99486.00;;;22.20
19948;BMP180;10135;50.702;7.276;2022-08-27T08:29:18;99481.00;;;22.20
19948;BMP180;10135;50.702;7.276;2022-08-27T08:31:20;99489.00;;;22.20
19948;BMP180;10135;50.702;7.276;2022-08-27T08:33:24;99485.00;;;22.20
19948;BMP180;10135;50.702;7.276;2022-08-27T08:35:25;99481.00;;;22.20
19948;BMP180;10135;50.702;7.276;2022-08-27T08:37:26;99490.00;;;22.20
19948;BMP180;10135;50.702;7.276;2022-08-27T08:39:27;99483.00;;;22.20
19948;BMP180;10135;50.702;7.276;2022-08-27T08:41:56;99486.00;;;22.20
19948;BMP180;10135;50.702;7.276;2022-08-27T08:43:59;99494.00;;;22.20
19948;BMP180;10135;50.702;7.276;2022-08-27T08:48:26;99488.00;;;22.20
19948;BMP180;10135;50.702;7.276;2022-08-27T08:50:47;99495.00;;;22.20
19948;BMP180;10135;50.702;7.276;2022-08-27T08:53:18;99505.00;;;22.20
19948;BMP180;10135;50.702;7.276;2022-08-27T08:55:50;99506.00;;;22.20
19948;BMP180;10135;50.702;7.276;2022-08-27T09:00:15;99505.00;;;22.20
19948;BMP180;10135;50.702;7.276;2022-08-27T09:02:16;99511.00;;;22.20
19948;BMP180;10135;50.702;7.276;2022-08-27T09:04:17;99513.00;;;22.20
19948;BMP180;10135;50.702;7.276;2022-08-27T09:06:57;99511.00;;;22.20
19948;BMP180;10135;50.702;7.276;2022-08-27T09:13:51;99516.00;;;22.20
19948;BMP180;10135;50.702;7.276;2022-08-27T09:15:59;99508.00;;;22.30
19948;BMP180;10135;50.702;7.276;2022-08-27T09:18:10;99511.00;;;22.30
19948;BMP180;10135;50.702;7.276;2022-08-27T09:20:13;99517.00;;;22.30
19948;BMP180;10135;50.702;7.276;2022-08-27T09:25:18;99520.00;;;22.30
19948;BMP180;10135;50.702;7.276;2022-08-27T09:27:22;99519.00;;;22.30
19948;BMP180;10135;50.702;7.276;2022-08-27T09:29:27;99520.00;;;22.30
19948;BMP180;10135;50.702;7.276;2022-08-27T09:31:28;99521.00;;;22.30
19948;BMP180;10135;50.702;7.276;2022-08-27T09:33:29;99518.00;;;22.30
19948;BMP180;10135;50.702;7.276;2022-08-27T09:35:43;99522.00;;;22.30
19948;BMP180;10135;50.702;7.276;2022-08-27T09:37:47;99517.00;;;22.30
19948;BMP180;10135;50.702;7.276;2022-08-27T09:40:22;99523.00;;;22.30
19948;BMP180;10135;50.702;7.276;2022-08-27T09:42:29;99520.00;;;22.40
19948;BMP180;10135;50.702;7.276;2022-08-27T09:44:31;99520.00;;;22.40
19948;BMP180;10135;50.702;7.276;2022-08-27T09:46:32;99529.00;;;22.40
19948;BMP180;10135;50.702;7.276;2022-08-27T09:48:36;99528.00;;;22.40
19948;BMP180;10135;50.702;7.276;2022-08-27T09:50:53;99526.00;;;22.40
19948;BMP180;10135;50.702;7.276;2022-08-27T09:52:57;99530.00;;;22.40
19948;BMP180;10135;50.702;7.276;2022-08-27T09:54:59;99525.00;;;22.40
19948;BMP180;10135;50.702;7.276;2022-08-27T09:57:00;99526.00;;;22.40
19948;BMP180;10135;50.702;7.276;2022-08-27T09:59:10;99531.00;;;22.40
19948;BMP180;10135;50.702;7.276;2022-08-27T10:01:25;99532.00;;;22.40
19948;BMP180;10135;50.702;7.276;2022-08-27T10:03:27;99528.00;;;22.50
19948;BMP180;10135;50.702;7.276;2022-08-27T10:05:48;99528.00;;;22.50
19948;BMP180;10135;50.702;7.276;2022-08-27T10:08:00;99524.00;;;22.50
19948;BMP180;10135;50.702;7.276;2022-08-27T10:10:23;99532.00;;;22.50
19948;BMP180;10135;50.702;7.276;2022-08-27T10:12:51;99533.00;;;22.50
19948;BMP180;10135;50.702;7.276;2022-08-27T10:14:59;99527.00;;;22.60
19948;BMP180;10135;50.702;7.276;2022-08-27T10:20:03;99532.00;;;22.50
19948;BMP180;10135;50.702;7.276;2022-08-27T10:25:19;99538.00;;;22.50
19948;BMP180;10135;50.702;7.276;2022-08-27T10:27:38;99540.00;;;22.50
19948;BMP180;10135;50.702;7.276;2022-08-27T10:29:59;99541.00;;;22.50
19948;BMP180;10135;50.702;7.276;2022-08-27T10:42:27;99535.00;;;22.50
19948;BMP180;10135;50.702;7.276;2022-08-27T10:44:53;99538.00;;;22.50
19948;BMP180;10135;50.702;7.276;2022-08-27T10:49:45;99528.00;;;22.50
19948;BMP180;10135;50.702;7.276;2022-08-27T10:52:28;99527.00;;;22.60
19948;BMP180;10135;50.702;7.276;2022-08-27T10:54:38;99532.00;;;22.60
19948;BMP180;10135;50.702;7.276;2022-08-27T10:57:03;99535.00;;;22.50
19948;BMP180;10135;50.702;7.276;2022-08-27T10:59:36;99537.00;;;22.60
19948;BMP180;10135;50.702;7.276;2022-08-27T11:04:45;99533.00;;;22.60
19948;BMP180;10135;50.702;7.276;2022-08-27T11:07:15;99535.00;;;22.60
19948;BMP180;10135;50.702;7.276;2022-08-27T11:12:02;99535.00;;;22.60
19948;BMP180;10135;50.702;7.276;2022-08-27T11:14:57;99532.00;;;22.60
19948;BMP180;10135;50.702;7.276;2022-08-27T11:16:44;99543.00;;;22.70
19948;BMP180;10135;50.702;7.276;2022-08-27T11:18:59;99543.00;;;22.70
19948;BMP180;10135;50.702;7.276;2022-08-27T11:21:18;99542.00;;;22.70
19948;BMP180;10135;50.702;7.276;2022-08-27T11:23:44;99537.00;;;22.70
19948;BMP180;10135;50.702;7.276;2022-08-27T11:25:58;99534.00;;;22.80
19948;BMP180;10135;50.702;7.276;2022-08-27T11:28:02;99533.00;;;22.80
19948;BMP180;10135;50.702;7.276;2022-08-27T11:31:17;99531.00;;;22.80
19948;BMP180;10135;50.702;7.276;2022-08-27T11:33:12;99529.00;;;22.80
19948;BMP180;10135;50.702;7.276;2022-08-27T11:35:21;99532.00;;;22.90
19948;BMP180;10135;50.702;7.276;2022-08-27T11:40:10;99536.00;;;22.90
19948;BMP180;10135;50.702;7.276;2022-08-27T11:42:50;99535.00;;;23.00
19948;BMP180;10135;50.702;7.276;2022-08-27T11:45:19;99539.00;;;23.00
19948;BMP180;10135;50.702;7.276;2022-08-27T11:47:26;99543.00;;;23.00
19948;BMP180;10135;50.702;7.276;2022-08-27T11:49:35;99535.00;;;23.00
19948;BMP180;10135;50.702;7.276;2022-08-27T11:51:40;99536.00;;;23.10
19948;BMP180;10135;50.702;7.276;2022-08-27T11:53:59;99538.00;;;23.10
19948;BMP180;10135;50.702;7.276;2022-08-27T11:56:31;99533.00;;;23.10
19948;BMP180;10135;50.702;7.276;2022-08-27T11:58:36;99533.00;;;23.20
19948;BMP180;10135;50.702;7.276;2022-08-27T12:00:41;99535.00;;;23.20
19948;BMP180;10135;50.702;7.276;2022-08-27T12:02:42;99528.00;;;23.20
19948;BMP180;10135;50.702;7.276;2022-08-27T12:04:43;99528.00;;;23.20
19948;BMP180;10135;50.702;7.276;2022-08-27T12:09:15;99541.00;;;23.20
19948;BMP180;10135;50.702;7.276;2022-08-27T12:14:37;99537.00;;;23.30
19948;BMP180;10135;50.702;7.276;2022-08-27T12:17:21;99541.00;;;23.40
19948;BMP180;10135;50.702;7.276;2022-08-27T12:19:46;99541.00;;;23.40
19948;BMP180;10135;50.702;7.276;2022-08-27T12:22:35;99540.00;;;23.40
19948;BMP180;10135;50.702;7.276;2022-08-27T12:24:58;99543.00;;;23.50
19948;BMP180;10135;50.702;7.276;2022-08-27T12:29:25;99544.00;;;23.50
19948;BMP180;10135;50.702;7.276;2022-08-27T12:31:28;99544.00;;;23.50
19948;BMP180;10135;50.702;7.276;2022-08-27T12:33:40;99538.00;;;23.40
19948;BMP180;10135;50.702;7.276;2022-08-27T12:35:49;99542.00;;;23.50
19948;BMP180;10135;50.702;7.276;2022-08-27T12:38:14;99542.00;;;23.50
19948;BMP180;10135;50.702;7.276;2022-08-27T12:40:38;99533.00;;;23.50
19948;BMP180;10135;50.702;7.276;2022-08-27T12:42:39;99536.00;;;23.50
19948;BMP180;10135;50.702;7.276;2022-08-27T12:44:43;99538.00;;;23.50
19948;BMP180;10135;50.702;7.276;2022-08-27T12:46:51;99533.00;;;23.50
19948;BMP180;10135;50.702;7.276;2022-08-27T12:48:58;99527.00;;;23.60
19948;BMP180;10135;50.702;7.276;2022-08-27T12:51:11;99534.00;;;23.60
19948;BMP180;10135;50.702;7.276;2022-08-27T12:53:22;99533.00;;;23.60